createdAt,value
2019-06-07T00:00:40.311Z,26.20
2019-06-07T00:05:48.672Z,28.10
2019-06-07T00:10:55.935Z,30.83
2019-06-07T00:16:03.320Z,28.53
2019-06-07T00:21:11.794Z,25.67
2019-06-07T00:26:21.219Z,28.23
2019-06-07T00:31:29.499Z,32.00
2019-06-07T00:36:37.684Z,34.30
2019-06-07T00:41:45.423Z,29.80
2019-06-07T00:46:52.676Z,31.70
2019-06-07T00:52:00.018Z,32.80
2019-06-07T00:57:07.688Z,28.73
2019-06-07T01:02:18.551Z,32.50
2019-06-07T01:07:26.021Z,30.87
2019-06-07T01:12:33.280Z,33.57
2019-06-07T01:18:32.123Z,30.10
2019-06-07T01:22:51.648Z,36.03
2019-06-07T01:27:59.473Z,28.50
2019-06-07T01:33:10.011Z,31.73
2019-06-07T01:38:21.323Z,29.30
2019-06-07T01:43:30.463Z,35.93
2019-06-07T01:48:49.053Z,34.47
2019-06-07T01:53:46.363Z,40.07
2019-06-07T01:58:53.702Z,32.80
2019-06-07T02:04:01.112Z,33.40
2019-06-07T02:09:09.337Z,41.50
2019-06-07T02:14:17.380Z,35.73
2019-06-07T02:19:27.459Z,32.43
2019-06-07T02:24:36.466Z,34.73
2019-06-07T02:29:44.839Z,35.83
2019-06-07T02:34:51.998Z,44.63
2019-06-07T02:40:00.278Z,39.27
2019-06-07T02:45:10.863Z,35.30
2019-06-07T02:50:19.532Z,39.30
2019-06-07T02:55:31.214Z,40.10
2019-06-07T03:01:09.045Z,39.10
2019-06-07T03:06:00.290Z,43.97
2019-06-07T03:11:08.653Z,39.77
2019-06-07T03:16:20.211Z,39.30
2019-06-07T03:21:31.326Z,41.47
2019-06-07T03:27:30.543Z,36.67
2019-06-07T03:31:49.191Z,37.53
2019-06-07T03:36:56.563Z,38.87
2019-06-07T03:42:06.708Z,43.90
2019-06-07T03:47:13.368Z,38.53
2019-06-07T03:52:20.794Z,36.17
2019-06-07T03:57:30.376Z,41.97
2019-06-07T04:02:41.519Z,33.57
2019-06-07T04:07:47.264Z,35.20
2019-06-07T04:12:54.609Z,37.03
2019-06-07T04:18:04.014Z,41.53
2019-06-07T04:23:27.288Z,39.40
2019-06-07T04:28:20.987Z,39.23
2019-06-07T04:33:50.153Z,46.83
2019-06-07T04:38:59.012Z,43.93
2019-06-07T04:44:16.025Z,38.67
2019-06-07T04:49:27.239Z,38.40
2019-06-07T04:54:52.493Z,39.03
2019-06-07T05:00:12.742Z,40.90
2019-06-07T05:05:29.294Z,40.63
2019-06-07T05:10:43.065Z,45.47
2019-06-07T05:15:48.853Z,48.80
2019-06-07T05:21:15.478Z,47.97
2019-06-07T05:26:30.479Z,48.67
2019-06-07T05:31:44.201Z,43.23
2019-06-07T05:37:11.123Z,46.70
2019-06-07T05:42:03.775Z,44.10
2019-06-07T05:47:29.608Z,45.57
2019-06-07T05:52:40.491Z,44.40
2019-06-07T05:57:50.969Z,43.10
2019-06-07T06:03:05.493Z,45.60
2019-06-07T06:08:06.792Z,43.93
2019-06-07T06:13:14.665Z,51.27
2019-06-07T06:18:45.737Z,51.97
2019-06-07T06:23:53.840Z,44.93
2019-06-07T06:29:01.366Z,50.77
2019-06-07T06:34:09.422Z,49.57
2019-06-07T06:39:16.806Z,45.23
2019-06-07T06:44:24.624Z,50.60
2019-06-07T06:49:31.880Z,44.97
2019-06-07T06:54:46.092Z,42.13
2019-06-07T06:59:51.090Z,42.43
2019-06-07T07:05:17.235Z,45.73
2019-06-07T07:10:45.736Z,40.73
2019-06-07T07:15:58.172Z,41.67
2019-06-07T07:21:02.945Z,38.63
2019-06-07T07:26:12.500Z,39.37
2019-06-07T07:31:19.695Z,43.17
2019-06-07T07:36:38.655Z,40.57
2019-06-07T07:42:13.826Z,37.33
2019-06-07T07:46:58.004Z,35.83
2019-06-07T07:52:05.443Z,35.43
2019-06-07T07:57:30.938Z,31.23
2019-06-07T08:02:38.413Z,33.30
2019-06-07T08:07:49.985Z,32.07
2019-06-07T08:13:19.182Z,32.87
2019-06-07T08:18:05.862Z,35.70
2019-06-07T08:23:31.548Z,33.97
2019-06-07T08:28:38.853Z,42.20
2019-06-07T08:33:47.771Z,36.80
2019-06-07T08:39:00.442Z,39.07
2019-06-07T08:44:22.403Z,35.00
2019-06-07T08:49:29.322Z,36.80
2019-06-07T08:54:36.803Z,35.13
2019-06-07T08:59:53.041Z,31.93
2019-06-07T09:05:10.715Z,32.97
2019-06-07T09:10:15.176Z,31.07
2019-06-07T09:15:24.435Z,29.07
2019-06-07T09:20:49.966Z,30.23
2019-06-07T09:26:09.839Z,33.27
2019-06-07T09:31:10.414Z,33.00
2019-06-07T09:36:16.275Z,31.73
2019-06-07T09:41:45.534Z,32.00
2019-06-07T09:46:35.106Z,30.10
2019-06-07T09:51:42.339Z,30.90
2019-06-07T09:56:50.308Z,31.33
2019-06-07T10:01:59.528Z,32.47
2019-06-07T10:07:16.956Z,30.73
2019-06-07T10:12:28.038Z,30.33
2019-06-07T10:17:36.390Z,23.60
2019-06-07T10:23:03.709Z,19.73
2019-06-07T10:28:29.474Z,19.73
2019-06-07T10:33:54.690Z,18.27
2019-06-07T10:39:03.110Z,19.83
2019-06-07T10:44:12.066Z,18.33
2019-06-07T10:49:19.298Z,25.27
2019-06-07T10:54:30.665Z,19.57
2019-06-07T10:59:37.020Z,22.17
2019-06-07T11:04:44.284Z,17.90
2019-06-07T11:10:06.297Z,16.33
2019-06-07T11:15:02.157Z,23.10
2019-06-07T11:20:12.477Z,18.03
2019-06-07T11:25:38.074Z,19.63
2019-06-07T11:30:45.322Z,18.13
2019-06-07T11:35:53.211Z,17.07
2019-06-07T11:41:01.248Z,21.30
2019-06-07T11:46:12.948Z,17.37
2019-06-07T11:51:21.208Z,16.20
2019-06-07T11:56:28.845Z,15.93
2019-06-07T12:01:37.381Z,12.80
2019-06-07T12:06:45.625Z,14.70
2019-06-07T12:11:52.820Z,14.00
2019-06-07T12:17:01.291Z,14.10
2019-06-07T12:22:09.870Z,12.73
2019-06-07T12:27:26.441Z,14.50
2019-06-07T12:32:33.743Z,11.07
2019-06-07T12:37:44.872Z,11.47
2019-06-07T12:42:53.173Z,14.27
2019-06-07T12:48:01.357Z,10.73
2019-06-07T12:53:09.198Z,9.70
2019-06-07T12:58:16.363Z,9.57
2019-06-07T13:03:24.696Z,11.00
2019-06-07T13:08:38.716Z,9.50
2019-06-07T13:13:48.780Z,8.70
2019-06-07T13:18:56.672Z,11.07
2019-06-07T13:24:03.904Z,8.10
2019-06-07T13:29:31.990Z,9.70
2019-06-07T13:34:51.308Z,9.43
2019-06-07T13:39:58.633Z,11.17
2019-06-07T13:45:08.424Z,13.37
2019-06-07T13:50:33.827Z,13.50
2019-06-07T13:55:53.910Z,10.47
2019-06-07T14:01:01.091Z,12.20
2019-06-07T14:06:10.316Z,12.10
2019-06-07T14:11:50.132Z,14.73
2019-06-07T14:16:55.005Z,12.47
2019-06-07T14:22:03.473Z,13.00
2019-06-07T14:27:29.721Z,12.37
2019-06-07T14:32:52.757Z,12.57
2019-06-07T14:38:00.826Z,11.43
2019-06-07T14:43:08.146Z,11.43
2019-06-07T14:48:27.888Z,12.80
2019-06-07T14:53:53.534Z,11.97
2019-06-07T14:59:02.660Z,11.93
2019-06-07T15:04:10.908Z,13.13
2019-06-07T15:09:37.359Z,14.03
2019-06-07T15:14:54.118Z,13.07
2019-06-07T15:20:06.846Z,12.97
2019-06-07T15:25:15.922Z,13.10
2019-06-07T15:30:23.337Z,13.10
2019-06-07T15:35:35.959Z,12.40
2019-06-07T15:40:42.432Z,14.60
2019-06-07T15:46:02.326Z,13.10
2019-06-07T15:51:30.548Z,11.40
2019-06-07T15:56:49.981Z,12.37
2019-06-07T16:01:57.574Z,11.33
2019-06-07T16:07:08.568Z,15.33
2019-06-07T16:12:18.471Z,13.27
2019-06-07T16:17:28.302Z,12.23
2019-06-07T16:22:35.873Z,14.03
2019-06-07T16:27:44.794Z,14.67
2019-06-07T16:32:52.374Z,13.53
2019-06-07T16:38:00.718Z,13.13
2019-06-07T16:43:17.537Z,15.30
2019-06-07T16:48:20.099Z,12.60
2019-06-07T16:53:27.936Z,14.47
2019-06-07T16:58:35.348Z,16.87
2019-06-07T17:03:43.533Z,14.37
2019-06-07T17:08:50.979Z,15.80
2019-06-07T17:13:59.277Z,13.70
2019-06-07T17:19:07.663Z,15.90
2019-06-07T17:24:16.347Z,15.97
2019-06-07T17:29:24.226Z,14.67
2019-06-07T17:34:35.492Z,16.03
2019-06-07T17:39:44.979Z,15.33
2019-06-07T17:44:52.319Z,13.87
2019-06-07T17:49:59.361Z,11.30
2019-06-07T17:55:11.709Z,12.70
2019-06-07T18:00:33.269Z,13.27
2019-06-07T18:05:32.885Z,14.17
2019-06-07T18:10:40.814Z,14.40
2019-06-07T18:16:07.701Z,13.17
2019-06-07T18:21:33.265Z,16.00
2019-06-07T18:26:42.418Z,13.13
2019-06-07T18:31:49.223Z,20.67
2019-06-07T18:37:02.973Z,17.53
2019-06-07T18:42:28.288Z,15.87
2019-06-07T18:47:53.730Z,15.33
2019-06-07T18:53:02.481Z,13.97
2019-06-07T18:58:12.941Z,14.10
2019-06-07T19:03:21.238Z,16.90
2019-06-07T19:08:52.157Z,16.93
2019-06-07T19:14:03.624Z,15.20
2019-06-07T19:19:11.188Z,14.73
2019-06-07T19:24:18.225Z,13.60
2019-06-07T19:29:26.174Z,23.07
2019-06-07T19:34:33.514Z,15.20
2019-06-07T19:39:41.555Z,17.10
2019-06-07T19:44:54.368Z,15.07
2019-06-07T19:49:58.810Z,17.53
2019-06-07T19:55:09.723Z,17.20
2019-06-07T20:00:17.325Z,17.53
2019-06-07T20:05:28.485Z,16.57
2019-06-07T20:10:35.489Z,17.70
2019-06-07T20:15:44.616Z,17.47
2019-06-07T20:20:51.596Z,18.23
2019-06-07T20:26:00.110Z,18.50
2019-06-07T20:31:08.211Z,18.23
2019-06-07T20:36:16.447Z,19.07
2019-06-07T20:41:24.401Z,20.47
2019-06-07T20:46:31.295Z,17.53
2019-06-07T20:51:38.379Z,15.83
2019-06-07T20:56:45.538Z,19.60
2019-06-07T21:01:56.320Z,15.53
2019-06-07T21:07:08.136Z,20.73
2019-06-07T21:12:28.622Z,13.27
2019-06-07T21:17:37.622Z,21.33
2019-06-07T21:22:45.719Z,12.57
2019-06-07T21:27:52.733Z,16.17
2019-06-07T21:33:01.357Z,16.23
2019-06-07T21:38:09.927Z,16.80
2019-06-07T21:43:17.134Z,16.53
2019-06-07T21:48:28.841Z,29.43
2019-06-07T21:53:54.501Z,15.17
2019-06-07T21:59:03.459Z,15.53
2019-06-07T22:04:11.720Z,13.53
2019-06-07T22:09:36.827Z,14.20
2019-06-07T22:14:44.610Z,13.00
2019-06-07T22:19:51.720Z,17.30
2019-06-07T22:24:59.230Z,14.97
2019-06-07T22:30:10.515Z,14.87
2019-06-07T22:35:17.690Z,19.03
2019-06-07T22:40:25.824Z,12.60
2019-06-07T22:45:33.256Z,12.13
2019-06-07T23:09:02.111Z,13.63
2019-06-07T23:14:11.213Z,16.27
2019-06-07T23:19:18.535Z,14.23
2019-06-07T23:24:26.618Z,14.47
2019-06-07T23:29:34.160Z,10.57
2019-06-07T23:34:42.164Z,6.80
2019-06-07T23:39:49.711Z,6.47
2019-06-07T23:44:58.325Z,6.13
2019-06-07T23:50:08.359Z,6.93
2019-06-07T23:55:33.612Z,2.40
